AirNav   Everest Fuels
 
 1641 users online  

5J9 Twin City Airport
Loris, South Carolina, USA

GOING TO LORIS?


FAA INFORMATION EFFECTIVE 16 JULY 2020

Location

FAA Identifier: 5J9
Lat/Long: 34-05-18.3000N 078-51-53.7000W
34-05.305000N 078-51.895000W
34.0884167,-78.8649167
(estimated)
Elevation: 99.3 ft. / 30.3 m (surveyed)
Variation: 08W (2000)
From city: 3 miles NE of LORIS, SC
Time zone: UTC -4 (UTC -5 during Standard Time)
Zip code: 29569

Airport Operations

Airport use: Open to the public
Activation date: 07/1961
Control tower: no
ARTCC: JACKSONVILLE CENTER
FSS: ANDERSON FLIGHT SERVICE STATION
NOTAMs facility: AND (NOTAM-D service available)
Attendance: UNATNDD
Wind indicator: lighted
Segmented circle: yes
Beacon: white-green (lighted land airport)
Operates sunset to sunrise.

Airport Communications

CTAF: 122.9
MYRTLE BEACH APPROACH: 119.2
MYRTLE BEACH DEPARTURE: 119.2
WX AWOS-3 at CPC (13 nm NE): 118.375 (910-642-7508)
WX ASOS at CRE (18 nm SE): 119.625 (843-361-2802)
  • APCH/DEP SVC PRVDD BY JACKSONVILLE ARTCC ON FREQ 134.375/317.550 (MYRTLE BEACH RCAG) WHEN MYRTLE BEACH APCH CTL CLSD.

Nearby radio navigation aids

VOR radial/distance  VOR name  Freq  Var
CREr340/17.9GRAND STRAND VORTAC114.4003W

 
NDB name  Hdg/Dist  Freq  Var  ID
CAMP221/13.422707WCPC -.-. .--. -.-.
HORRY047/20.637008WHYW .... -.-- .--
ELIZABETHTOWN221/31.639808WTGQ - --. --.-
ROBESON171/33.035908WRSY .-. ... -.--
DILLON140/33.127409WDLC -.. .-.. -.-.

Airport Services

Parking: tiedowns
Airframe service: NONE
Powerplant service: NONE
Bottled oxygen: NONE
Bulk oxygen: NONE

Runway Information

Runway 8/26

Dimensions: 3694 x 60 ft. / 1126 x 18 m
Surface: asphalt, in good condition
Weight bearing capacity: 
Single wheel: 8.0
Runway edge lights: low intensity
RUNWAY 8  RUNWAY 26
Latitude: 34-05.218735N34-05.390357N
Longitude: 078-52.246725W078-51.544410W
Elevation: 99.2 ft.99.3 ft.
Traffic pattern: leftleft
Runway heading: 082 magnetic, 074 true262 magnetic, 254 true
Displaced threshold: 200 ft.no
Markings: basic, in good conditionbasic, in good condition
Visual slope indicator: 2-box SAVASI on left (3.50 degrees glide path)
Touchdown point: yes, no lightsyes, no lights
Obstructions: 17 ft. road, 200 ft. from runway, 1:1 slope to clear
RWY 08 ROADWAY AND 50FT TREES 150' TO 175' R;DIST 0 TO 200 FT FROM RWY. AIRCRAFT ACTIVITY APRON 150FT R, DIST 0 TO 125' FROM RWY.
80 ft. trees, 1804 ft. from runway, 261 ft. right of centerline, 20:1 slope to clear

Airport Ownership and Management from official FAA records

Ownership: Publicly-owned
Owner: HORRY COUNTY
PO BOX 1236
CONWAY, SC 29526
Phone 843-448-1580
Manager: SCOTT VAN MOPPES
1100 JETPORT RD
MYRTLE BEACH, SC 29577
Phone 843-448-1580

Airport Operational Statistics

Aircraft based on the field: 5
Single engine airplanes: 3
Multi engine airplanes: 2
    
Aircraft operations: avg 23/week *
50% transient general aviation
50% local general aviation
* for 12-month period ending 24 August 2017

Additional Remarks

30 FT POWER LINE 180 FT SOUTH OF RWY 8-26.
BIRDS ON AND INVOF ARPT.
FOR CD CTC MYRTLE BEACH APCH AT 843-477-2727 OR 843-477-2704, WHEN APCH CLSD CTC JACKSONVILLE ARTCC AT 904-845-1592.

Instrument Procedures

NOTE: All procedures below are presented as PDF files. If you need a reader for these files, you should download the free Adobe Reader.

NOT FOR NAVIGATION. Please procure official charts for flight.
FAA instrument procedures published for use from 16 July 2020 at 0901Z to 13 August 2020 at 0900Z.

 
IAPs - Instrument Approach Procedures
GPS RWY 26   download (158KB)
NOTE: Special Take-Off Minimums/Departure Procedures apply   download (141KB)

Other nearby airports with instrument procedures:

KCPC - Columbus County Municipal Airport (13 nm NE)
KCRE - Grand Strand Airport (18 nm SE)
KHYW - Conway-Horry County Airport (20 nm SW)
KMAO - Marion County Airport (24 nm W)
KMYR - Myrtle Beach International Airport (25 nm S)
 
Loc | Ops | Rwys | IFR | FBO | Links
Com | Nav | Svcs | Stats | Notes
Area around 5J9 (Twin City Airport)
 
Road maps at: MapQuest Bing Google
 
Aerial photo
WARNING: Photo may not be current or correct
Aerial photo of 5J9 (Twin City Airport)
Do you have a better or more recent aerial photo of Twin City Airport that you would like to share? If so, please send us your photo.

 
Sectional chart

 
Airport distance calculator
Flying to Twin City Airport? Find the distance to fly.

From to 5J9

Sunrise and sunset
Times for 11-Aug-2020
 Local
(UTC-4)
 Zulu
(UTC)
Morning civil twilight06:0910:09
Sunrise06:3610:36
Sunset20:0500:05
Evening civil twilight20:3200:32

Current date and time
Zulu (UTC)  11-Aug-2020 17:24:25
Local (UTC-4)  11-Aug-2020 13:24:25
 
METAR
KCRE 
18nm SE 
111653Z 18007KT 10SM CLR 29/22 A3000 RMK AO1 SLP159 T02940222
KHYW 
20nm SW 
111655Z AUTO 00000KT 10SM SCT033 30/22 A3000 RMK AO2
KMAO 
24nm W 
111655Z AUTO 00000KT 10SM CLR 29/22 A3001 RMK AO2 P0002
KMYR 
25nm S 
111656Z 15006KT 10SM CLR 29/22 A3001 RMK AO2 SLP161 T02890222
TAF
KCRE 
18nm SE 
111120Z 1112/1212 22007KT P6SM SCT015 SCT035 FM111600 19006KT P6SM VCSH SCT035 BKN080 FM112100 16009KT P6SM SCT120
NOTAMs
Click for the latest NOTAMs
NOTAMs are issued by the DoD/FAA and will open in a separate window not controlled by AirNav.

 

 
 

Would you like to see your business listed on this page?

 If your business provides an interesting product or service to pilots, flight crews, aircraft, or users of the Twin City Airport, you should consider listing it here.  To start the listing process, click on the button below
 
Add a business
 

Other Pages about Twin City Airport

www.horrycounty.org/...
 
Update a link
 
Copyright © AirNav, LLC. All rights reserved. Privacy Policy  Contact